createdAt,value
2018-09-20T00:01:15.690Z,94306.79
2018-09-20T00:16:49.827Z,94297.11
2018-09-20T00:32:24.424Z,94300.02
2018-09-20T00:47:58.128Z,94286.05
2018-09-20T01:03:32.171Z,94285.89
2018-09-20T01:19:07.065Z,94286.91
2018-09-20T01:34:40.759Z,94287.19
2018-09-20T01:50:14.604Z,94303.34
2018-09-20T02:05:48.993Z,94304.18
2018-09-20T02:21:22.918Z,94295.11
2018-09-20T02:36:57.298Z,94299.83
2018-09-20T02:53:16.921Z,94305.45
2018-09-20T03:08:50.863Z,94313.70
2018-09-20T03:24:23.963Z,94319.84
2018-09-20T03:39:57.406Z,94317.08
2018-09-20T03:55:31.707Z,94326.53
2018-09-20T04:11:06.392Z,94330.06
2018-09-20T04:26:40.167Z,94322.70
2018-09-20T04:42:14.416Z,94303.77
2018-09-20T04:57:48.628Z,94302.88
2018-09-20T05:13:23.295Z,94290.75
2018-09-20T05:28:57.287Z,94289.08
2018-09-20T05:44:31.573Z,94279.91
2018-09-20T06:00:05.715Z,94285.23
2018-09-20T06:15:40.148Z,94277.09
2018-09-20T06:31:13.922Z,94281.56
2018-09-20T06:46:47.329Z,94294.00
2018-09-20T07:02:21.512Z,94299.53
2018-09-20T07:17:54.960Z,94294.42
2018-09-20T07:33:28.178Z,94290.67
2018-09-20T07:49:02.016Z,94278.48
2018-09-20T08:04:35.373Z,94273.44
2018-09-20T08:20:08.075Z,94270.20
2018-09-20T08:35:41.345Z,94249.20
2018-09-20T08:51:14.255Z,94246.52
2018-09-20T09:06:48.602Z,94235.40
2018-09-20T09:22:22.653Z,94236.14
2018-09-20T09:37:56.927Z,94207.71
2018-09-20T09:53:31.040Z,94190.87
2018-09-20T10:09:04.284Z,94189.38
2018-09-20T10:24:37.193Z,94176.09
2018-09-20T10:40:11.121Z,94156.61
2018-09-20T10:55:45.261Z,94137.70
2018-09-20T11:11:18.382Z,94122.53
2018-09-20T11:26:51.265Z,94109.37
2018-09-20T11:42:25.168Z,94106.88
2018-09-20T11:57:59.316Z,94085.33
2018-09-20T12:13:33.065Z,94083.20
2018-09-20T12:29:07.014Z,94078.57
2018-09-20T12:44:40.088Z,94052.88
2018-09-20T13:00:14.216Z,94040.73
2018-09-20T13:15:48.030Z,94045.48
2018-09-20T13:31:21.452Z,93982.77
2018-09-20T13:46:56.374Z,94028.09
2018-09-20T14:02:30.340Z,94022.81
2018-09-20T14:18:05.126Z,94019.69
2018-09-20T14:33:38.115Z,94025.04
2018-09-20T14:49:13.200Z,94036.39
2018-09-20T15:04:47.206Z,94037.59
2018-09-20T15:20:21.535Z,94044.55
2018-09-20T15:35:56.220Z,94053.94
2018-09-20T15:51:30.621Z,94061.03
2018-09-20T16:07:04.401Z,94061.20
2018-09-20T16:22:38.478Z,94080.19
2018-09-20T16:38:31.853Z,94084.00
2018-09-20T16:54:05.973Z,94083.17
2018-09-20T17:09:40.583Z,94100.25
2018-09-20T17:25:15.704Z,94115.77
2018-09-20T17:40:52.810Z,94121.81
2018-09-20T17:56:27.744Z,94134.73
2018-09-20T18:12:01.849Z,94154.47
2018-09-20T18:27:36.272Z,94157.76
2018-09-20T18:43:10.369Z,94157.20
2018-09-20T18:58:45.356Z,94140.15
2018-09-20T19:14:19.228Z,94140.27
2018-09-20T19:29:54.054Z,94139.37
2018-09-20T19:45:28.864Z,94136.12
2018-09-20T20:01:03.147Z,94140.39
2018-09-20T20:16:37.532Z,94143.13
2018-09-20T20:32:11.522Z,94146.23
2018-09-20T20:47:45.136Z,94145.63
2018-09-20T21:03:19.499Z,94138.00
2018-09-20T21:18:52.338Z,94133.66
2018-09-20T21:34:26.616Z,94150.00
2018-09-20T21:49:59.844Z,94148.98
2018-09-20T22:05:34.524Z,94145.70
2018-09-20T22:21:07.850Z,94142.74
2018-09-20T22:36:42.153Z,94142.56
2018-09-20T22:52:15.375Z,94142.97
2018-09-20T23:07:48.747Z,94134.11
2018-09-20T23:23:21.768Z,94134.17
2018-09-20T23:38:54.712Z,94136.27
2018-09-20T23:54:28.944Z,94141.92
